createdAt,value
2018-08-03T00:03:00.914Z,5.78
2018-08-03T00:07:53.922Z,5.90
2018-08-03T00:12:46.903Z,5.72
2018-08-03T00:17:41.219Z,5.62
2018-08-03T00:22:34.811Z,6.20
2018-08-03T00:27:27.826Z,5.90
2018-08-03T00:32:20.889Z,6.00
2018-08-03T00:37:14.181Z,5.70
2018-08-03T00:42:07.157Z,5.95
2018-08-03T00:47:00.163Z,5.87
2018-08-03T00:51:53.270Z,6.28
2018-08-03T00:56:46.337Z,5.72
2018-08-03T01:01:39.377Z,6.00
2018-08-03T01:06:32.349Z,6.10
2018-08-03T01:11:25.512Z,5.50
2018-08-03T01:16:18.683Z,5.67
2018-08-03T01:21:11.663Z,5.35
2018-08-03T01:26:04.613Z,5.65
2018-08-03T01:30:57.544Z,5.22
2018-08-03T01:35:50.530Z,5.45
2018-08-03T01:40:43.541Z,5.30
2018-08-03T01:45:37.194Z,4.83
2018-08-03T01:50:31.234Z,5.20
2018-08-03T01:55:24.278Z,4.03
2018-08-03T02:00:17.343Z,4.92
2018-08-03T02:05:10.427Z,5.12
2018-08-03T02:10:03.622Z,5.40
2018-08-03T02:14:56.725Z,5.60
2018-08-03T02:19:49.690Z,4.17
2018-08-03T02:24:42.658Z,5.45
2018-08-03T02:29:35.595Z,4.95
2018-08-03T02:34:28.595Z,5.30
2018-08-03T02:39:21.660Z,5.80
2018-08-03T02:44:14.737Z,5.47
2018-08-03T02:49:07.940Z,6.12
2018-08-03T02:54:01.589Z,6.03
2018-08-03T02:58:54.558Z,6.33
2018-08-03T03:03:47.702Z,6.90
2018-08-03T03:08:40.765Z,6.47
2018-08-03T03:13:33.768Z,6.87
2018-08-03T03:18:27.098Z,6.67
2018-08-03T03:23:20.222Z,6.08
2018-08-03T03:28:13.153Z,5.70
2018-08-03T03:33:06.247Z,6.50
2018-08-03T03:37:59.205Z,6.87
2018-08-03T03:42:52.692Z,6.92
2018-08-03T03:47:45.619Z,6.30
2018-08-03T03:52:38.587Z,6.67
2018-08-03T03:57:31.736Z,7.55
2018-08-03T04:02:25.113Z,7.40
2018-08-03T04:07:18.315Z,7.20
2018-08-03T04:12:11.466Z,7.50
2018-08-03T04:17:04.499Z,7.25
2018-08-03T04:21:57.922Z,6.70
2018-08-03T04:26:50.979Z,7.65
2018-08-03T04:31:44.116Z,7.47
2018-08-03T04:36:37.566Z,7.83
2018-08-03T04:41:31.724Z,7.25
2018-08-03T04:46:24.728Z,7.67
2018-08-03T04:51:17.874Z,7.37
2018-08-03T04:56:10.828Z,6.90
2018-08-03T05:01:03.975Z,7.45
2018-08-03T05:05:57.127Z,7.40
2018-08-03T05:10:50.162Z,7.00
2018-08-03T05:15:43.405Z,7.42
2018-08-03T05:20:36.402Z,7.15
2018-08-03T05:25:29.313Z,6.97
2018-08-03T05:30:22.438Z,7.20
2018-08-03T05:35:15.644Z,7.40
2018-08-03T05:40:08.823Z,7.10
2018-08-03T05:45:02.019Z,7.00
2018-08-03T05:49:55.152Z,7.10
2018-08-03T05:54:48.302Z,7.37
2018-08-03T05:59:41.624Z,6.70
2018-08-03T06:04:34.744Z,7.47
2018-08-03T06:09:27.867Z,7.17
2018-08-03T06:14:20.858Z,6.45
2018-08-03T06:19:13.872Z,7.20
2018-08-03T06:24:07.213Z,6.72
2018-08-03T06:29:00.552Z,7.00
2018-08-03T06:33:53.589Z,7.05
2018-08-03T06:38:46.631Z,7.25
2018-08-03T06:43:39.730Z,7.42
2018-08-03T06:48:33.744Z,6.95
2018-08-03T06:53:26.892Z,6.95
2018-08-03T06:58:19.864Z,7.60
2018-08-03T07:03:12.837Z,7.95
2018-08-03T07:08:05.976Z,7.85
2018-08-03T07:17:57.064Z,7.22
2018-08-03T07:22:50.268Z,7.35
2018-08-03T07:27:43.412Z,7.28
2018-08-03T07:32:38.971Z,7.33
2018-08-03T07:37:31.947Z,7.03
2018-08-03T07:42:24.994Z,7.00
2018-08-03T07:47:18.560Z,6.97
2018-08-03T07:52:12.146Z,7.45
2018-08-03T07:57:05.270Z,7.78
2018-08-03T08:01:59.643Z,7.25
2018-08-03T08:06:53.296Z,6.58
2018-08-03T08:11:46.375Z,6.17
2018-08-03T08:16:39.337Z,7.35
2018-08-03T08:21:32.610Z,7.03
2018-08-03T08:26:25.565Z,7.35
2018-08-03T08:31:19.188Z,6.97
2018-08-03T08:36:14.306Z,6.90
2018-08-03T08:41:07.346Z,6.70
2018-08-03T08:46:00.349Z,6.92
2018-08-03T08:50:53.893Z,7.45
2018-08-03T08:55:47.813Z,7.08
2018-08-03T09:00:40.904Z,6.53
2018-08-03T09:05:34.012Z,6.87
2018-08-03T09:10:26.920Z,6.20
2018-08-03T09:15:19.927Z,7.50
2018-08-03T09:20:12.855Z,6.78
2018-08-03T09:25:06.192Z,6.60
2018-08-03T09:29:59.831Z,6.67
2018-08-03T09:34:52.902Z,6.90
2018-08-03T09:39:46.040Z,6.87
2018-08-03T09:44:39.295Z,7.20
2018-08-03T09:49:32.327Z,6.83
2018-08-03T09:54:25.441Z,6.70
2018-08-03T09:59:18.634Z,6.75
2018-08-03T10:04:11.730Z,6.85
2018-08-03T10:09:06.508Z,6.20
2018-08-03T10:13:59.509Z,7.33
2018-08-03T10:18:53.281Z,6.83
2018-08-03T10:23:46.870Z,6.70
2018-08-03T10:28:39.916Z,6.92
2018-08-03T10:33:32.893Z,6.55
2018-08-03T10:38:26.759Z,7.00
2018-08-03T10:43:19.818Z,6.95
2018-08-03T10:48:13.247Z,6.42
2018-08-03T10:53:06.655Z,7.00
2018-08-03T10:57:59.667Z,6.92
2018-08-03T11:02:53.543Z,7.03
2018-08-03T11:07:48.504Z,7.15
2018-08-03T11:12:42.429Z,6.53
2018-08-03T11:17:36.322Z,6.72
2018-08-03T11:22:30.381Z,6.00
2018-08-03T11:27:24.227Z,7.30
2018-08-03T11:32:17.778Z,6.45
2018-08-03T11:37:10.712Z,6.20
2018-08-03T11:42:03.927Z,7.60
2018-08-03T11:46:57.165Z,7.03
2018-08-03T11:51:50.360Z,6.70
2018-08-03T11:56:43.916Z,7.53
2018-08-03T12:01:37.752Z,7.28
2018-08-03T12:06:31.083Z,7.60
2018-08-03T12:11:24.283Z,7.28
2018-08-03T12:16:17.709Z,7.00
2018-08-03T12:21:10.697Z,6.62
2018-08-03T12:26:03.689Z,7.47
2018-08-03T12:30:59.145Z,7.28
2018-08-03T12:35:52.234Z,7.37
2018-08-03T12:40:45.412Z,7.80
2018-08-03T12:45:38.528Z,7.92
2018-08-03T12:50:32.505Z,7.00
2018-08-03T12:55:25.731Z,7.35
2018-08-03T13:00:18.715Z,7.05
2018-08-03T13:05:11.965Z,6.70
2018-08-03T13:10:06.441Z,6.78
2018-08-03T13:14:59.657Z,7.55
2018-08-03T13:19:54.072Z,7.22
2018-08-03T13:24:47.366Z,7.35
2018-08-03T13:29:40.686Z,6.75
2018-08-03T13:34:33.812Z,6.33
2018-08-03T13:39:27.132Z,6.40
2018-08-03T13:44:20.309Z,6.40
2018-08-03T13:49:13.331Z,5.40
2018-08-03T13:54:06.682Z,5.90
2018-08-03T13:59:01.911Z,6.35
2018-08-03T14:03:55.449Z,6.35
2018-08-03T14:08:49.462Z,7.30
2018-08-03T14:13:42.609Z,7.03
2018-08-03T14:18:35.759Z,7.40
2018-08-03T14:23:29.523Z,7.37
2018-08-03T14:28:22.526Z,6.72
2018-08-03T14:33:15.812Z,8.00
2018-08-03T14:38:08.936Z,8.03
2018-08-03T14:43:02.558Z,8.35
2018-08-03T14:47:55.669Z,8.93
2018-08-03T14:52:48.979Z,8.35
2018-08-03T14:57:42.021Z,7.80
2018-08-03T15:02:35.077Z,8.28
2018-08-03T15:07:28.539Z,8.75
2018-08-03T15:12:21.530Z,7.78
2018-08-03T15:17:14.657Z,7.20
2018-08-03T15:22:07.645Z,7.80
2018-08-03T15:27:01.723Z,7.30
2018-08-03T15:31:54.842Z,7.65
2018-08-03T15:36:55.402Z,7.55
2018-08-03T15:41:50.396Z,8.00
2018-08-03T15:46:44.206Z,7.60
2018-08-03T15:51:37.134Z,7.85
2018-08-03T15:56:30.539Z,7.83
2018-08-03T16:01:23.535Z,9.03
2018-08-03T16:06:16.693Z,8.93
2018-08-03T16:11:09.700Z,8.25
2018-08-03T16:16:02.943Z,9.30
2018-08-03T16:20:56.248Z,7.87
2018-08-03T16:25:49.474Z,8.43
2018-08-03T16:30:42.915Z,8.15
2018-08-03T16:35:36.201Z,7.87
2018-08-03T16:40:29.394Z,8.15
2018-08-03T16:45:22.538Z,8.83
2018-08-03T16:50:15.751Z,7.80
2018-08-03T16:55:08.799Z,8.33
2018-08-03T17:00:01.835Z,8.65
2018-08-03T17:04:54.928Z,9.15
2018-08-03T17:09:47.983Z,8.38
2018-08-03T17:14:41.174Z,8.83
2018-08-03T17:19:34.258Z,7.83
2018-08-03T17:24:27.184Z,7.92
2018-08-03T17:29:20.282Z,7.75
2018-08-03T17:34:13.386Z,7.90
2018-08-03T17:39:09.322Z,8.10
2018-08-03T17:44:02.553Z,8.80
2018-08-03T17:48:55.584Z,8.63
2018-08-03T17:53:48.682Z,9.28
2018-08-03T17:58:41.940Z,8.63
2018-08-03T18:03:35.555Z,8.70
2018-08-03T18:08:28.657Z,8.90
2018-08-03T18:13:21.744Z,8.45
2018-08-03T18:18:14.802Z,8.35
2018-08-03T18:23:07.940Z,8.68
2018-08-03T18:28:00.987Z,8.00
2018-08-03T18:32:54.022Z,12.95
2018-08-03T18:37:47.108Z,8.25
2018-08-03T18:42:40.977Z,8.25
2018-08-03T18:47:34.111Z,8.40
2018-08-03T18:52:42.984Z,8.20
2018-08-03T19:10:37.037Z,8.43
2018-08-03T19:15:30.508Z,8.65
2018-08-03T19:20:23.535Z,8.48
2018-08-03T19:25:16.747Z,8.60
2018-08-03T19:30:09.850Z,8.48
2018-08-03T19:35:02.967Z,8.88
2018-08-03T19:39:56.128Z,8.10
2018-08-03T19:44:49.279Z,7.95
2018-08-03T19:49:42.383Z,8.50
2018-08-03T19:54:35.370Z,8.23
2018-08-03T19:59:28.618Z,7.87
2018-08-03T20:04:21.711Z,8.13
2018-08-03T20:09:15.209Z,7.83
2018-08-03T20:14:08.173Z,7.35
2018-08-03T20:19:02.819Z,7.83
2018-08-03T20:23:55.785Z,7.87
2018-08-03T20:28:48.796Z,8.85
2018-08-03T20:33:41.924Z,7.90
2018-08-03T20:38:34.884Z,8.23
2018-08-03T20:43:27.970Z,8.70
2018-08-03T20:48:20.921Z,8.30
2018-08-03T20:53:13.893Z,7.75
2018-08-03T20:58:06.813Z,8.10
2018-08-03T21:02:59.886Z,8.03
2018-08-03T21:07:52.942Z,7.22
2018-08-03T21:12:45.878Z,7.37
2018-08-03T21:17:38.935Z,7.10
2018-08-03T21:22:32.154Z,6.75
2018-08-03T21:27:25.417Z,6.95
2018-08-03T21:32:18.361Z,6.95
2018-08-03T21:37:11.703Z,6.35
2018-08-03T21:42:05.058Z,6.17
2018-08-03T21:46:58.219Z,5.80
2018-08-03T21:51:51.244Z,5.58
2018-08-03T21:56:44.257Z,5.17
2018-08-03T22:01:37.428Z,6.42
2018-08-03T22:06:30.521Z,5.70
2018-08-03T22:11:23.486Z,6.10
2018-08-03T22:16:16.470Z,6.17
2018-08-03T22:21:09.497Z,6.00
2018-08-03T22:26:02.589Z,5.30
2018-08-03T22:30:55.518Z,5.12
2018-08-03T22:35:48.509Z,5.35
2018-08-03T22:40:41.412Z,5.10
2018-08-03T22:45:34.333Z,4.85
2018-08-03T22:50:27.460Z,4.75
2018-08-03T22:55:20.459Z,4.58
2018-08-03T23:00:13.534Z,4.58
2018-08-03T23:05:06.702Z,4.37
2018-08-03T23:10:00.296Z,5.00
2018-08-03T23:14:53.376Z,4.72
2018-08-03T23:19:46.364Z,4.95
2018-08-03T23:24:39.487Z,5.00
2018-08-03T23:29:32.392Z,4.67
2018-08-03T23:34:25.612Z,4.50
2018-08-03T23:39:18.818Z,4.37
2018-08-03T23:44:11.808Z,4.58
2018-08-03T23:49:04.996Z,4.17
2018-08-03T23:53:58.023Z,4.67
2018-08-03T23:58:51.174Z,4.40
